createdAt,value
2023-03-21T14:35:49.892Z,4.92
2023-03-21T14:38:26.575Z,4.80
2023-03-21T14:40:55.515Z,7.50
2023-03-21T14:43:24.107Z,9.78
2023-03-21T14:45:54.764Z,9.20
2023-03-21T14:48:31.019Z,6.44
2023-03-21T14:51:06.388Z,5.77
2023-03-21T14:53:39.527Z,4.94
2023-03-21T14:56:20.165Z,6.16
2023-03-21T14:58:48.488Z,7.46
2023-03-21T15:02:20.029Z,6.12
2023-03-21T15:05:41.731Z,5.07
2023-03-21T15:08:15.064Z,5.00
2023-03-21T15:10:48.610Z,4.62
2023-03-21T15:13:19.818Z,4.52
2023-03-21T15:15:47.948Z,4.45
2023-03-21T15:18:20.664Z,4.36
2023-03-21T15:20:49.196Z,4.63
2023-03-21T15:23:38.530Z,4.78
2023-03-21T15:26:06.771Z,4.84
2023-03-21T15:28:35.186Z,4.60
2023-03-21T15:31:04.548Z,4.77
2023-03-21T15:33:32.757Z,5.27
2023-03-21T15:36:01.052Z,5.25
2023-03-21T15:38:36.779Z,6.06
2023-03-21T15:41:26.912Z,6.62
2023-03-21T15:44:10.263Z,7.14
2023-03-21T15:46:46.422Z,7.92
2023-03-21T16:15:27.614Z,13.75
2023-03-21T16:18:05.028Z,12.24
2023-03-21T16:20:37.971Z,12.12
2023-03-21T16:23:06.479Z,10.28
2023-03-21T16:25:35.424Z,10.04
2023-03-21T16:28:03.658Z,9.77
2023-03-21T16:30:31.901Z,9.32
2023-03-21T16:33:00.092Z,9.20
2023-03-21T16:35:28.961Z,8.68
2023-03-21T16:37:57.256Z,8.26
2023-03-21T16:40:31.045Z,8.12
2023-03-21T16:42:59.133Z,8.01
2023-03-21T16:45:29.389Z,8.18
2023-03-21T16:47:57.761Z,7.75
